Polar Star — ------- — position and weather

sailwx.info

Track history (hours):
 
Tides and Currents Weather Stations Pressure Air Temp Water Temp Dewpoint Dewpoint Depression Visibility Wind Speed Wind Dir Waves Ship Positions

Polar Star

Last reported at 2014-Apr-07 16:28 UTC. Time now 2014-Sep-21 08:08 UTC.
Position N 40°35' W 074°01'.
Warning: this ship's position is months out of date.

Length 80 m.

Type: Ship. MMSI: 211222224.

Date/timePositionNaut miles runAvg speedWind from/ knotsBaromVisibWave heightAir tempDewpointWater temp
2014-Apr-07 16:28N 40°35' W 074°01'5 6.0
2014-Apr-07 15:34N 40°40' W 074°02'410.2
2014-Apr-07 15:11N 40°36' W 074°02'2 3.8
2014-Apr-07 14:33N 40°39' W 074°02'421.3
2014-Apr-07 14:23N 40°35' W 074°03'4 0.9
2014-Apr-07 10:21N 40°39' W 074°02'0 0.0
2014-Apr-07 01:33N 40°39' W 074°02'854831.7
2014-Apr-07 00:32N 27°16' W 079°53'1818.6
2014-Apr-06 23:34N 26°58' W 079°51'872870.4
2014-Apr-06 22:33N 40°40' W 074°01'888532912.9
2014-Apr-06 22:33N 26°40' W 079°48'888891.2
2014-Apr-06 21:34N 40°40' W 074°01'906543379.6
2014-Apr-06 21:33N 26°22' W 079°48'904295812.1
2014-Apr-06 21:33N 40°39' W 074°02'0 1.3
2014-Apr-06 21:19N 40°39' W 074°02'4 5.3
2014-Apr-06 20:34N 40°42' W 073°59'0188.3
2014-Apr-06 20:33N 40°42' W 073°60'22845.4
2014-Apr-06 20:33N 40°40' W 074°01'9243324758.0
2014-Apr-06 20:33N 26°04' W 079°50'922922.8
2014-Apr-06 19:33N 40°39' W 074°02'21566.6
2014-Apr-06 19:33N 40°40' W 074°01'11125.3
2014-Apr-06 19:33N 40°41' W 074°01'1 1.0
2014-Apr-06 18:33N 40°40' W 074°01'0517.0
2014-Apr-06 18:33N 40°40' W 074°01'3 2.8
2014-Apr-06 17:33N 40°43' W 074°01'0 5.2
2014-Apr-06 17:29N 40°43' W 074°01'2 2.4
2014-Apr-06 16:33N 40°40' W 074°01'41186.1
2014-Apr-06 16:33N 40°43' W 073°58'4 3.6
2014-Apr-06 15:33N 40°40' W 074°01'3 3.4
2014-Apr-06 14:33N 40°38' W 074°04'2 0.5
2014-Apr-06 10:23N 40°39' W 074°02'3 3.5
2014-Apr-06 09:33N 40°41' W 074°01'0 0.0
2014-Apr-06 08:33N 40°41' W 074°01'0 0.0
2014-Apr-06 07:33N 40°41' W 074°01'0 0.0
2014-Apr-06 06:33N 40°41' W 074°01'0 0.0
2014-Apr-06 05:33N 40°41' W 074°01'0 0.0
2014-Apr-06 04:33N 40°41' W 074°01'0 0.0
2014-Apr-06 03:33N 40°41' W 074°01'0 0.0
2014-Apr-06 02:34N 40°41' W 074°01'9779147911.8
2014-Apr-06 02:30N 33°37' E 130°17'97821866.8
2014-Apr-05 21:15N 40°39' W 074°02'5 7.0
2014-Apr-05 20:33N 40°43' W 073°58'1 1.0
2014-Apr-05 19:12N 40°44' W 073°58'0 0.0
2014-Apr-05 18:29N 40°44' W 073°58'1 0.7
2014-Apr-05 17:33N 40°44' W 073°58'2 2.1
2014-Apr-05 16:31N 40°43' W 074°01'4 4.2
2014-Apr-05 15:33N 40°39' W 074°02'934.9
2014-Apr-05 15:19N 40°46' W 073°56'911.5
2014-Apr-05 14:33N 40°39' W 074°02'0 0.1
2014-Apr-05 10:05N 40°39' W 074°02'5 3.2
2014-Apr-05 08:33N 40°43' W 073°58'5 1.5
2014-Apr-05 05:14N 40°39' W 074°02'22793255.1
2014-Apr-05 04:32N 49°05' W 126°17'1414.2
2014-Apr-05 03:33N 49°05' W 125°56'226513889.6
2014-Apr-05 03:23N 40°47' W 073°55'7 8.2
2014-Apr-05 02:33N 40°41' W 074°01'226310778.3
2014-Apr-05 02:21N 49°04' W 125°55'22632835.2
2014-Apr-05 01:33N 40°41' W 074°01'226420845.4
2014-Apr-05 01:26N 49°04' W 125°56'22652518.2
2014-Apr-05 00:32N 40°37' W 074°03'3 2.9
2014-Apr-04 23:33N 40°40' W 074°01'1543.9
2014-Apr-04 23:33N 40°39' W 074°02'0 0.0
2014-Apr-04 22:33N 40°39' W 074°02'0 0.0
2014-Apr-04 21:34N 40°39' W 074°02'0 0.0
2014-Apr-04 20:34N 40°39' W 074°02'0 0.0
2014-Apr-04 19:06N 40°39' W 074°02'2 3.2
2014-Apr-04 18:34N 40°40' W 074°01'21387147.1
2014-Apr-04 18:16N 47°44' W 122°45'5 7.0
2014-Apr-04 17:32N 47°40' W 122°50'2142110177.6
2014-Apr-04 17:31N 40°37' W 074°03'0 0.3
2014-Apr-04 16:33N 40°37' W 074°03'23592.4
2014-Apr-04 16:33N 40°39' W 074°02'214327257.2
2014-Apr-04 16:29N 47°41' W 122°50'21422330.1
2014-Apr-04 15:33N 40°40' W 074°01'21269.9
2014-Apr-04 15:33N 40°39' W 074°02'226114585.5
2014-Apr-04 15:24N 48°42' W 125°47'910.3
2014-Apr-04 14:33N 48°39' W 125°35'225027084.9
2014-Apr-04 14:28N 40°44' W 074°01'6402.9
2014-Apr-04 14:27N 40°39' W 074°02'981.1
2014-Apr-04 14:20N 40°47' W 073°56'8 8.1
2014-Apr-04 13:24N 40°40' W 074°01'1 1.7
2014-Apr-04 12:33N 40°39' W 074°02'21961528.7
2014-Apr-04 11:07N 48°22' W 124°12'812.8
2014-Apr-04 10:32N 48°19' W 124°01'21897448.2
2014-Apr-04 10:14N 40°39' W 074°02'21723219.6
2014-Apr-04 09:33N 48°16' W 123°37'21721302919.6
2014-Apr-04 09:33N 40°41' W 074°01'21642161.4
2014-Apr-04 08:33N 48°22' W 123°27'2164458225.6
2014-Apr-04 08:33N 40°41' W 074°01'0 0.0
2014-Apr-04 07:33N 40°41' W 074°01'216592799.3
2014-Apr-04 07:32N 48°21' W 123°29'21652217.7
2014-Apr-04 06:33N 40°41' W 074°01'216186424.6
2014-Apr-04 06:32N 48°19' W 123°22'5 4.7
2014-Apr-04 05:33N 48°21' W 123°16'2156705672.2
2014-Apr-04 05:33N 40°41' W 074°01'931.1
2014-Apr-04 05:15N 40°48' W 073°52'21603111.3
2014-Apr-04 04:33N 48°16' W 123°16'3 3.3
2014-Apr-04 03:33N 48°17' W 123°20'215823608.6
2014-Apr-04 03:28N 40°46' W 074°00'5 5.7
2014-Apr-04 02:34N 40°41' W 074°01'0195.1
2014-Apr-04 02:33N 40°41' W 074°01'2155209698.3
2014-Apr-04 02:33N 48°17' W 123°14'21552177.6
2014-Apr-04 01:33N 40°41' W 074°01'12316.3
2014-Apr-04 01:33N 40°43' W 073°60'215139312.7
2014-Apr-04 01:30N 48°19' W 123°08'21512277.2
2014-Apr-04 00:33N 40°43' W 073°60'415010.1
2014-Apr-04 00:33N 40°39' W 074°02'215387079.6
2014-Apr-04 00:32N 48°17' W 123°09'1111.5
2014-Apr-03 23:33N 48°18' W 123°26'21652597416.5
2014-Apr-03 23:33N 40°39' W 074°02'8464.0
2014-Apr-03 23:32N 40°46' W 073°57'8 7.8
2014-Apr-03 22:33N 40°39' W 074°02'414863.8
2014-Apr-03 22:33N 40°43' W 073°60'2166127805.6
2014-Apr-03 22:32N 48°21' W 123°29'7 6.7
2014-Apr-03 21:34N 48°21' W 123°19'21591554656.1
2014-Apr-03 21:33N 40°39' W 074°02'44935.1
2014-Apr-03 21:33N 40°42' W 073°60'4 8.9
2014-Apr-03 21:06N 40°39' W 074°02'0 0.4
2014-Apr-03 20:33N 40°39' W 074°02'32436.2
2014-Apr-03 20:33N 40°42' W 074°01'215780049.7
2014-Apr-03 20:32N 48°16' W 123°16'4 4.3
2014-Apr-03 19:33N 48°18' W 123°22'2162324244.6
2014-Apr-03 19:33N 40°39' W 074°02'0 0.6
2014-Apr-03 19:30N 40°39' W 074°02'9781246233.7
2014-Apr-03 19:27N 23°15' E 116°60'978110874.6
2014-Apr-03 18:33N 40°39' W 074°02'2157172597.4
2014-Apr-03 18:33N 48°19' W 123°17'4 3.9
2014-Apr-03 17:33N 48°20' W 123°22'5 4.6
2014-Apr-03 16:33N 48°23' W 123°27'21632183.1
2014-Apr-03 15:33N 40°43' W 074°01'216265949.5
2014-Apr-03 15:31N 48°17' W 123°24'9 8.1
2014-Apr-03 14:24N 48°17' W 123°11'215731307.1
2014-Apr-03 14:20N 40°34' W 074°01'7 8.6
2014-Apr-03 13:33N 40°41' W 074°02'215133515.2
2014-Apr-03 13:30N 48°18' W 123°08'21522298.3
2014-Apr-03 12:33N 40°39' W 074°02'215129783.8
2014-Apr-03 12:29N 48°18' W 123°07'3 2.9
2014-Apr-03 11:33N 48°18' W 123°11'6 5.5
2014-Apr-03 10:33N 48°17' W 123°19'216032667.6
2014-Apr-03 10:29N 40°39' W 074°02'1156.3
2014-Apr-03 10:17N 40°48' W 073°52'11110.8
2014-Apr-03 10:11N 40°39' W 074°02'4 6.6
2014-Apr-03 09:34N 40°42' W 073°60'1417.1
2014-Apr-03 09:33N 40°41' W 074°01'2158204455.0
2014-Apr-03 09:33N 48°16' W 123°18'21582188.1
2014-Apr-03 08:34N 40°42' W 073°60'2152774739.8
2014-Apr-03 08:33N 48°17' W 123°09'2152352125.7
2014-Apr-03 08:33N 40°41' W 074°01'0 0.0
2014-Apr-03 07:33N 40°41' W 074°01'1269.8
2014-Apr-03 07:33N 40°42' W 073°60'2153151990.6
2014-Apr-03 07:32N 48°18' W 123°10'21532195.9
2014-Apr-03 06:34N 40°42' W 073°60'14578.5
2014-Apr-03 06:34N 40°41' W 074°01'1 1.3
2014-Apr-03 05:34N 40°42' W 073°60'14586.1
2014-Apr-03 05:34N 40°41' W 074°01'2151967770.8
2014-Apr-03 05:33N 48°18' W 123°07'22135124.4
2014-Apr-03 05:07N 32°29' W 079°21'556981.8
2014-Apr-03 04:34N 40°41' W 074°01'21557757499.5
2014-Apr-03 04:33N 48°17' W 123°13'2155969770.8
2014-Apr-03 04:33N 40°43' W 073°60'1 1.3
2014-Apr-03 03:33N 40°41' W 074°01'21632595588.1
2014-Apr-03 03:33N 48°19' W 123°25'2164865492.8
2014-Apr-03 03:33N 40°39' W 074°02'3 2.9
2014-Apr-03 02:34N 40°41' W 074°01'21671300215.1
2014-Apr-03 02:33N 48°21' W 123°31'21681300662.6
2014-Apr-03 02:33N 40°39' W 074°02'3 2.9
2014-Apr-03 01:33N 40°41' W 074°01'2160388744.9
2014-Apr-03 01:33N 48°20' W 123°20'21597771705.5
2014-Apr-03 01:33N 40°43' W 074°01'21522165.1
2014-Apr-03 00:34N 48°23' W 123°11'21533876164.4
2014-Apr-03 00:33N 40°39' W 074°02'4258.0
2014-Apr-03 00:33N 40°43' W 074°01'21562188.9
2014-Apr-02 23:33N 48°20' W 123°16'21581109661.4
2014-Apr-02 23:33N 40°39' W 074°02'0 0.0
2014-Apr-02 22:34N 40°39' W 074°02'44624.4
2014-Apr-02 22:33N 40°42' W 074°00'21597771248.3
2014-Apr-02 22:33N 48°16' W 123°18'21592161.1
2014-Apr-02 21:34N 40°39' W 074°02'21636.7
2014-Apr-02 21:33N 40°40' W 074°02'21573882246.5
2014-Apr-02 21:33N 48°19' W 123°16'4 4.5
2014-Apr-02 20:33N 48°19' W 123°23'21627782535.2
2014-Apr-02 20:33N 40°40' W 074°01'21662165.6
2014-Apr-02 19:33N 48°20' W 123°28'1 0.9
2014-Apr-02 18:34N 48°21' W 123°29'1 0.9
2014-Apr-02 17:33N 48°20' W 123°29'1 0.6
2014-Apr-02 16:33N 48°20' W 123°29'216414114.3
2014-Apr-02 16:24N 40°44' W 074°01'21632560.3
2014-Apr-02 15:33N 48°22' W 123°28'1 0.9
2014-Apr-02 14:33N 48°21' W 123°29'216426492.8
2014-Apr-02 14:28N 40°44' W 074°01'1 1.3
2014-Apr-02 13:33N 40°43' W 074°02'2164125658.7
2014-Apr-02 13:32N 48°20' W 123°29'1515.3
2014-Apr-02 12:33N 48°19' W 123°06'3 2.8
2014-Apr-02 11:29N 48°17' W 123°09'21532241.9
2014-Apr-02 10:32N 40°39' W 074°02'2151124906.4
2014-Apr-02 10:31N 48°19' W 123°07'21518510.0
2014-Apr-02 10:16N 40°39' W 074°02'2 2.4
2014-Apr-02 09:33N 40°40' W 074°01'12175.8
2014-Apr-02 09:33N 40°41' W 074°01'2153596328.2
2014-Apr-02 09:33N 48°17' W 123°11'2156107816.6
2014-Apr-02 09:32N 40°48' W 073°52'21642218.7
2014-Apr-02 08:33N 48°17' W 123°22'21617781098.7
2014-Apr-02 08:33N 40°40' W 074°01'11087.9
2014-Apr-02 08:33N 40°41' W 074°01'1 1.2
2014-Apr-02 07:33N 40°40' W 074°01'1309.3
2014-Apr-02 07:33N 40°41' W 074°01'2163556197.0
2014-Apr-02 07:33N 48°24' W 123°25'4 4.3
2014-Apr-02 06:34N 48°21' W 123°29'21663899188.8
2014-Apr-02 06:33N 40°40' W 074°01'11083.1
2014-Apr-02 06:33N 40°41' W 074°01'21662169.4
2014-Apr-02 05:34N 48°20' W 123°29'21662599461.5
2014-Apr-02 05:33N 40°40' W 074°01'12166.1
2014-Apr-02 05:33N 40°41' W 074°01'977.6
2014-Apr-02 05:27N 40°48' W 073°52'21682452.3
2014-Apr-02 04:33N 48°21' W 123°28'21651559043.9
2014-Apr-02 04:33N 40°41' W 074°01'1721.7
2014-Apr-02 04:33N 40°40' W 074°01'1036.6
2014-Apr-02 04:17N 40°48' W 073°52'21692982.6
2014-Apr-02 03:33N 48°20' W 123°30'21671299954.0
2014-Apr-02 03:33N 40°40' W 074°01'1025.8
2014-Apr-02 03:10N 40°48' W 073°52'21673518.6
2014-Apr-02 02:34N 48°24' W 123°27'21641298678.9
2014-Apr-02 02:33N 40°40' W 074°01'28683.4
2014-Apr-02 02:33N 40°43' W 073°60'2 2.4
2014-Apr-02 01:33N 40°40' W 074°01'21661949557.7
2014-Apr-02 01:33N 48°21' W 123°29'2166210735.2
2014-Apr-02 01:33N 40°43' W 073°60'21552184.5
2014-Apr-02 00:34N 48°17' W 123°13'21561940270.6
2014-Apr-02 00:33N 40°39' W 074°02'4345.5
2014-Apr-02 00:33N 40°43' W 073°60'21522181.1
2014-Apr-01 23:34N 48°19' W 123°09'21531549831.5
2014-Apr-01 23:33N 40°39' W 074°02'4619.1
2014-Apr-01 23:33N 40°43' W 073°60'21532170.0
2014-Apr-01 22:34N 48°17' W 123°10'21541550656.3
2014-Apr-01 22:33N 40°39' W 074°02'41142.9
2014-Apr-01 22:33N 40°43' W 073°60'21542164.4
2014-Apr-01 21:34N 48°27' W 123°12'21541938741.2
2014-Apr-01 21:33N 40°39' W 074°02'3 2.9
2014-Apr-01 20:33N 40°41' W 074°01'215822392.4
2014-Apr-01 20:28N 48°42' W 123°21'1011.4
2014-Apr-01 19:33N 48°53' W 123°18'21561940185.1
2014-Apr-01 19:33N 40°41' W 074°01'1 1.3
2014-Apr-01 18:33N 40°42' W 073°60'2158215838.8
2014-Apr-01 18:33N 49°09' W 123°23'215697020.6
2014-Apr-01 18:32N 40°45' W 074°01'21472216.3
2014-Apr-01 17:33N 49°19' W 123°11'21475508.9
2014-Apr-01 17:10N 40°44' W 074°02'21432688.1
2014-Apr-01 16:22N 49°18' W 123°05'21432347.8
2014-Apr-01 15:27N 40°44' W 074°02'4 3.9
2014-Apr-01 14:27N 40°46' W 073°57'414.3
2014-Apr-01 14:10N 40°44' W 074°02'6 8.9
2014-Apr-01 13:33N 40°39' W 074°02'0 0.0
2014-Apr-01 12:33N 40°39' W 074°02'0 0.0
2014-Apr-01 11:33N 40°39' W 074°02'0 0.0
2014-Apr-01 10:33N 40°39' W 074°02'2 1.7
2014-Apr-01 09:33N 40°40' W 074°01'0 0.0
2014-Apr-01 08:33N 40°40' W 074°01'0 0.0
2014-Apr-01 07:33N 40°40' W 074°01'0 0.0
2014-Apr-01 06:33N 40°40' W 074°01'0 0.0
2014-Apr-01 05:33N 40°40' W 074°01'0 0.0
2014-Apr-01 04:33N 40°40' W 074°01'867.3
2014-Apr-01 04:27N 40°47' W 073°56'8 8.7
2014-Apr-01 03:33N 40°40' W 074°01'0 0.0
2014-Apr-01 02:33N 40°40' W 074°01'2 1.7
2014-Apr-01 01:33N 40°39' W 074°02'0 0.0
2014-Apr-01 00:34N 40°39' W 074°02'014.6
2014-Apr-01 00:33N 40°39' W 074°02'0 0.0
2014-Mar-31 23:34N 40°39' W 074°02'5139.7
2014-Mar-31 23:31N 40°44' W 074°01'5 5.4
2014-Mar-31 22:33N 40°39' W 074°02'1 1.4
2014-Mar-31 21:33N 40°40' W 074°01'3 1.3
2014-Mar-31 19:26N 40°43' W 074°01'2 2.8
2014-Mar-31 18:33N 40°40' W 074°01'0 3.8
2014-Mar-31 18:28N 40°40' W 074°01'2 4.0
2014-Mar-31 18:05N 40°39' W 074°02'4 6.7
2014-Mar-31 17:34N 40°42' W 074°01'2841.9
2014-Mar-31 17:33N 40°40' W 074°01'21535.6
2014-Mar-31 17:33N 40°39' W 074°02'0 0.0
2014-Mar-31 16:33N 40°39' W 074°02'21233.7
2014-Mar-31 16:33N 40°40' W 074°01'12186.6
2014-Mar-31 16:33N 40°41' W 074°01'2134174631.5
2014-Mar-31 16:33N 32°40' W 117°14'21342161.4
2014-Mar-31 15:33N 40°41' W 074°01'32618.1
2014-Mar-31 15:33N 40°39' W 074°02'21027.1
2014-Mar-31 15:33N 40°40' W 074°01'2 2.4
2014-Mar-31 14:33N 40°43' W 073°60'28723.4
2014-Mar-31 14:33N 40°40' W 074°01'2 2.4
2014-Mar-31 13:33N 40°43' W 073°60'0 0.0
2014-Mar-31 12:33N 40°43' W 073°60'0 0.0
2014-Mar-31 11:33N 40°42' W 073°60'4 0.3
2014-Mar-30 21:32N 40°39' W 074°02'4 3.5
2014-Mar-30 20:21N 40°43' W 074°01'4 5.2
2014-Mar-30 19:34N 40°39' W 074°02'0 0.0
2014-Mar-30 18:34N 40°39' W 074°02'0 0.0
2014-Mar-30 17:34N 40°39' W 074°02'240569.5
2014-Mar-30 17:08N 36°56' W 075°58'240416.1
2014-Mar-30 16:34N 40°39' W 074°02'24132104.9
2014-Mar-30 16:33N 36°58' W 076°05'241242.5
2014-Mar-30 15:33N 40°39' W 074°02'24640276.5
2014-Mar-30 15:33N 36°57' W 076°20'246247.6
2014-Mar-30 14:33N 40°39' W 074°02'0 0.0
2014-Mar-30 13:33N 40°39' W 074°02'313.5
2014-Mar-30 13:20N 40°42' W 074°01'2 2.4
2014-Mar-30 12:32N 40°44' W 074°02'5 4.9
2014-Mar-30 11:32N 40°39' W 074°02'0 0.0
2014-Mar-30 10:23N 40°39' W 074°02'2 1.9
2014-Mar-30 09:33N 40°40' W 074°00'0 0.0
2014-Mar-30 08:33N 40°40' W 074°00'0 0.0
2014-Mar-30 07:33N 40°40' W 074°00'0 0.0
2014-Mar-30 06:33N 40°40' W 074°00'9781186297.2
2014-Mar-30 06:30N 33°38' E 130°19'978110322.5
2014-Mar-30 05:33N 40°40' W 074°00'9779227113.6
2014-Mar-30 05:31N 33°40' E 130°19'977910218.5
2014-Mar-30 04:33N 40°40' W 074°00'0 0.0
2014-Mar-30 03:34N 40°40' W 074°00'0 0.0
2014-Mar-30 02:33N 40°40' W 074°00'8128.7
2014-Mar-30 02:30N 40°47' W 073°56'8 8.3
2014-Mar-30 01:34N 40°40' W 074°00'3 0.6
2014-Mar-29 20:25N 40°43' W 074°01'2 2.0
2014-Mar-29 19:34N 40°41' W 074°01'98129696.6
2014-Mar-29 18:33N 22°20' E 116°36'9815173203.5
2014-Mar-29 18:29N 40°39' W 074°02'0 0.1
2014-Mar-29 18:13N 40°39' W 074°02'0 0.0
2014-Mar-29 17:33N 40°39' W 074°02'21054.0
2014-Mar-29 17:33N 40°40' W 074°01'0 0.0
2014-Mar-29 16:33N 40°40' W 074°01'2451.7
2014-Mar-29 16:33N 40°39' W 074°02'2 1.8
2014-Mar-29 15:33N 40°40' W 074°01'23174.8
2014-Mar-29 15:33N 40°39' W 074°02'2 1.7
2014-Mar-29 14:33N 40°40' W 074°01'1 1.4
2014-Mar-29 13:33N 40°42' W 074°01'3 8.6
2014-Mar-29 13:12N 40°39' W 074°02'0 0.0
2014-Mar-29 12:24N 40°39' W 074°02'0 0.5
2014-Mar-29 12:20N 40°39' W 074°02'0 0.0
2014-Mar-29 11:33N 40°39' W 074°02'1 0.9
2014-Mar-29 10:33N 40°40' W 074°02'1221.5
2014-Mar-29 10:33N 40°39' W 074°02'2 1.6
2014-Mar-29 09:33N 40°40' W 074°00'1816.3
2014-Mar-29 09:33N 40°41' W 074°01'1 1.1
2014-Mar-29 08:33N 40°40' W 074°00'0257.4
2014-Mar-29 08:33N 40°40' W 074°01'0 0.4
2014-Mar-29 07:33N 40°40' W 074°00'0258.9
2014-Mar-29 07:33N 40°40' W 074°01'0 0.4
2014-Mar-29 06:33N 40°40' W 074°00'0321.8
2014-Mar-29 06:33N 40°40' W 074°01'0 0.4
2014-Mar-29 05:33N 40°40' W 074°00'0323.6
2014-Mar-29 05:33N 40°40' W 074°01'0 0.4
2014-Mar-29 04:33N 40°40' W 074°00'0258.9
2014-Mar-29 04:33N 40°40' W 074°01'818.6
2014-Mar-29 04:08N 40°47' W 073°56'813.4
2014-Mar-29 03:34N 40°40' W 074°00'2957.3
2014-Mar-29 03:33N 40°41' W 074°01'2 1.6
2014-Mar-29 02:34N 40°40' W 074°00'21148.8
2014-Mar-29 02:33N 40°41' W 074°01'3 2.9
2014-Mar-29 01:33N 40°39' W 074°02'33481.3
2014-Mar-29 01:33N 40°41' W 074°01'3 6.1
2014-Mar-29 01:05N 40°39' W 074°02'0 0.1
2014-Mar-29 00:33N 40°39' W 074°02'44952.6
2014-Mar-29 00:33N 40°43' W 073°60'1159.7
2014-Mar-29 00:33N 40°41' W 074°01'3 2.9
2014-Mar-28 23:33N 40°39' W 074°02'32089.6
2014-Mar-28 23:33N 40°41' W 074°01'1513.7
2014-Mar-28 23:33N 40°43' W 073°60'4 4.1
2014-Mar-28 22:33N 40°39' W 074°02'32612.1
2014-Mar-28 22:33N 40°41' W 074°01'12311.5
2014-Mar-28 22:33N 40°43' W 073°60'4 4.1
2014-Mar-28 21:33N 40°39' W 074°02'42971.5
2014-Mar-28 21:33N 40°43' W 073°60'1513.7
2014-Mar-28 21:33N 40°41' W 074°01'0 0.2
2014-Mar-28 20:34N 40°41' W 074°01'32450.5
2014-Mar-28 20:33N 40°39' W 074°02'42971.5
2014-Mar-28 20:33N 40°43' W 073°60'477.3
2014-Mar-28 20:30N 40°39' W 074°02'2 2.1
2014-Mar-28 19:32N 40°37' W 074°03'2 1.9
2014-Mar-28 18:32N 40°39' W 074°02'318.7
2014-Mar-28 18:23N 40°36' W 074°01'731.3
2014-Mar-28 18:10N 40°43' W 074°01'4 6.0
2014-Mar-28 17:29N 40°39' W 074°02'4989.0
2014-Mar-28 17:29N 40°43' W 074°01'1 1.1
2014-Mar-28 16:33N 40°42' W 073°60'  
Track history (hours):
 
Tides and Currents Weather Stations Pressure Air Temp Water Temp Dewpoint Dewpoint Depression Visibility Wind Speed Wind Dir Waves Ship Positions

Polar Star

Last reported at 2014-Apr-07 16:28 UTC. Time now 2014-Sep-21 08:08 UTC.
Position N 40°35' W 074°01'.
Warning: this ship's position is months out of date.

Length 80 m.

Type: Ship. MMSI: 211222224.

Date/timePositionNaut miles runAvg speedWind from/ knotsBaromVisibWave heightAir tempDewpointWater temp
2014-Apr-07 16:28N 40°35' W 074°01'5 6.0
2014-Apr-07 15:34N 40°40' W 074°02'410.2
2014-Apr-07 15:11N 40°36' W 074°02'2 3.8
2014-Apr-07 14:33N 40°39' W 074°02'421.3
2014-Apr-07 14:23N 40°35' W 074°03'4 0.9
2014-Apr-07 10:21N 40°39' W 074°02'0 0.0
2014-Apr-07 01:33N 40°39' W 074°02'854831.7
2014-Apr-07 00:32N 27°16' W 079°53'1818.6
2014-Apr-06 23:34N 26°58' W 079°51'872870.4
2014-Apr-06 22:33N 40°40' W 074°01'888532912.9
2014-Apr-06 22:33N 26°40' W 079°48'888891.2
2014-Apr-06 21:34N 40°40' W 074°01'906543379.6
2014-Apr-06 21:33N 26°22' W 079°48'904295812.1
2014-Apr-06 21:33N 40°39' W 074°02'0 1.3
2014-Apr-06 21:19N 40°39' W 074°02'4 5.3
2014-Apr-06 20:34N 40°42' W 073°59'0188.3
2014-Apr-06 20:33N 40°42' W 073°60'22845.4
2014-Apr-06 20:33N 40°40' W 074°01'9243324758.0
2014-Apr-06 20:33N 26°04' W 079°50'922922.8
2014-Apr-06 19:33N 40°39' W 074°02'21566.6
2014-Apr-06 19:33N 40°40' W 074°01'11125.3
2014-Apr-06 19:33N 40°41' W 074°01'1 1.0
2014-Apr-06 18:33N 40°40' W 074°01'0517.0
2014-Apr-06 18:33N 40°40' W 074°01'3 2.8
2014-Apr-06 17:33N 40°43' W 074°01'0 5.2
2014-Apr-06 17:29N 40°43' W 074°01'2 2.4
2014-Apr-06 16:33N 40°40' W 074°01'41186.1
2014-Apr-06 16:33N 40°43' W 073°58'4 3.6
2014-Apr-06 15:33N 40°40' W 074°01'3 3.4
2014-Apr-06 14:33N 40°38' W 074°04'2 0.5
2014-Apr-06 10:23N 40°39' W 074°02'3 3.5
2014-Apr-06 09:33N 40°41' W 074°01'0 0.0
2014-Apr-06 08:33N 40°41' W 074°01'0 0.0
2014-Apr-06 07:33N 40°41' W 074°01'0 0.0
2014-Apr-06 06:33N 40°41' W 074°01'0 0.0
2014-Apr-06 05:33N 40°41' W 074°01'0 0.0
2014-Apr-06 04:33N 40°41' W 074°01'0 0.0
2014-Apr-06 03:33N 40°41' W 074°01'0 0.0
2014-Apr-06 02:34N 40°41' W 074°01'9779147911.8
2014-Apr-06 02:30N 33°37' E 130°17'97821866.8
2014-Apr-05 21:15N 40°39' W 074°02'5 7.0
2014-Apr-05 20:33N 40°43' W 073°58'1 1.0
2014-Apr-05 19:12N 40°44' W 073°58'0 0.0
2014-Apr-05 18:29N 40°44' W 073°58'1 0.7
2014-Apr-05 17:33N 40°44' W 073°58'2 2.1
2014-Apr-05 16:31N 40°43' W 074°01'4 4.2
2014-Apr-05 15:33N 40°39' W 074°02'934.9
2014-Apr-05 15:19N 40°46' W 073°56'911.5
2014-Apr-05 14:33N 40°39' W 074°02'0 0.1
2014-Apr-05 10:05N 40°39' W 074°02'5 3.2
2014-Apr-05 08:33N 40°43' W 073°58'5 1.5
2014-Apr-05 05:14N 40°39' W 074°02'22793255.1
2014-Apr-05 04:32N 49°05' W 126°17'1414.2
2014-Apr-05 03:33N 49°05' W 125°56'226513889.6
2014-Apr-05 03:23N 40°47' W 073°55'7 8.2
2014-Apr-05 02:33N 40°41' W 074°01'226310778.3
2014-Apr-05 02:21N 49°04' W 125°55'22632835.2
2014-Apr-05 01:33N 40°41' W 074°01'226420845.4
2014-Apr-05 01:26N 49°04' W 125°56'22652518.2
2014-Apr-05 00:32N 40°37' W 074°03'3 2.9
2014-Apr-04 23:33N 40°40' W 074°01'1543.9
2014-Apr-04 23:33N 40°39' W 074°02'0 0.0
2014-Apr-04 22:33N 40°39' W 074°02'0 0.0
2014-Apr-04 21:34N 40°39' W 074°02'0 0.0
2014-Apr-04 20:34N 40°39' W 074°02'0 0.0
2014-Apr-04 19:06N 40°39' W 074°02'2 3.2
2014-Apr-04 18:34N 40°40' W 074°01'21387147.1
2014-Apr-04 18:16N 47°44' W 122°45'5 7.0
2014-Apr-04 17:32N 47°40' W 122°50'2142110177.6
2014-Apr-04 17:31N 40°37' W 074°03'0 0.3
2014-Apr-04 16:33N 40°37' W 074°03'23592.4
2014-Apr-04 16:33N 40°39' W 074°02'214327257.2
2014-Apr-04 16:29N 47°41' W 122°50'21422330.1
2014-Apr-04 15:33N 40°40' W 074°01'21269.9
2014-Apr-04 15:33N 40°39' W 074°02'226114585.5
2014-Apr-04 15:24N 48°42' W 125°47'910.3
2014-Apr-04 14:33N 48°39' W 125°35'225027084.9
2014-Apr-04 14:28N 40°44' W 074°01'6402.9
2014-Apr-04 14:27N 40°39' W 074°02'981.1
2014-Apr-04 14:20N 40°47' W 073°56'8 8.1
2014-Apr-04 13:24N 40°40' W 074°01'1 1.7
2014-Apr-04 12:33N 40°39' W 074°02'21961528.7
2014-Apr-04 11:07N 48°22' W 124°12'812.8
2014-Apr-04 10:32N 48°19' W 124°01'21897448.2
2014-Apr-04 10:14N 40°39' W 074°02'21723219.6
2014-Apr-04 09:33N 48°16' W 123°37'21721302919.6
2014-Apr-04 09:33N 40°41' W 074°01'21642161.4
2014-Apr-04 08:33N 48°22' W 123°27'2164458225.6
2014-Apr-04 08:33N 40°41' W 074°01'0 0.0
2014-Apr-04 07:33N 40°41' W 074°01'216592799.3
2014-Apr-04 07:32N 48°21' W 123°29'21652217.7
2014-Apr-04 06:33N 40°41' W 074°01'216186424.6
2014-Apr-04 06:32N 48°19' W 123°22'5 4.7
2014-Apr-04 05:33N 48°21' W 123°16'2156705672.2
2014-Apr-04 05:33N 40°41' W 074°01'931.1
2014-Apr-04 05:15N 40°48' W 073°52'21603111.3
2014-Apr-04 04:33N 48°16' W 123°16'3 3.3
2014-Apr-04 03:33N 48°17' W 123°20'215823608.6
2014-Apr-04 03:28N 40°46' W 074°00'5 5.7
2014-Apr-04 02:34N 40°41' W 074°01'0195.1
2014-Apr-04 02:33N 40°41' W 074°01'2155209698.3
2014-Apr-04 02:33N 48°17' W 123°14'21552177.6
2014-Apr-04 01:33N 40°41' W 074°01'12316.3
2014-Apr-04 01:33N 40°43' W 073°60'215139312.7
2014-Apr-04 01:30N 48°19' W 123°08'21512277.2
2014-Apr-04 00:33N 40°43' W 073°60'415010.1
2014-Apr-04 00:33N 40°39' W 074°02'215387079.6
2014-Apr-04 00:32N 48°17' W 123°09'1111.5
2014-Apr-03 23:33N 48°18' W 123°26'21652597416.5
2014-Apr-03 23:33N 40°39' W 074°02'8464.0
2014-Apr-03 23:32N 40°46' W 073°57'8 7.8
2014-Apr-03 22:33N 40°39' W 074°02'414863.8
2014-Apr-03 22:33N 40°43' W 073°60'2166127805.6
2014-Apr-03 22:32N 48°21' W 123°29'7 6.7
2014-Apr-03 21:34N 48°21' W 123°19'21591554656.1
2014-Apr-03 21:33N 40°39' W 074°02'44935.1
2014-Apr-03 21:33N 40°42' W 073°60'4 8.9
2014-Apr-03 21:06N 40°39' W 074°02'0 0.4
2014-Apr-03 20:33N 40°39' W 074°02'32436.2
2014-Apr-03 20:33N 40°42' W 074°01'215780049.7
2014-Apr-03 20:32N 48°16' W 123°16'4 4.3
2014-Apr-03 19:33N 48°18' W 123°22'2162324244.6
2014-Apr-03 19:33N 40°39' W 074°02'0 0.6
2014-Apr-03 19:30N 40°39' W 074°02'9781246233.7
2014-Apr-03 19:27N 23°15' E 116°60'978110874.6
2014-Apr-03 18:33N 40°39' W 074°02'2157172597.4
2014-Apr-03 18:33N 48°19' W 123°17'4 3.9
2014-Apr-03 17:33N 48°20' W 123°22'5 4.6
2014-Apr-03 16:33N 48°23' W 123°27'21632183.1
2014-Apr-03 15:33N 40°43' W 074°01'216265949.5
2014-Apr-03 15:31N 48°17' W 123°24'9 8.1
2014-Apr-03 14:24N 48°17' W 123°11'215731307.1
2014-Apr-03 14:20N 40°34' W 074°01'7 8.6
2014-Apr-03 13:33N 40°41' W 074°02'215133515.2
2014-Apr-03 13:30N 48°18' W 123°08'21522298.3
2014-Apr-03 12:33N 40°39' W 074°02'215129783.8
2014-Apr-03 12:29N 48°18' W 123°07'3 2.9
2014-Apr-03 11:33N 48°18' W 123°11'6 5.5
2014-Apr-03 10:33N 48°17' W 123°19'216032667.6
2014-Apr-03 10:29N 40°39' W 074°02'1156.3
2014-Apr-03 10:17N 40°48' W 073°52'11110.8
2014-Apr-03 10:11N 40°39' W 074°02'4 6.6
2014-Apr-03 09:34N 40°42' W 073°60'1417.1
2014-Apr-03 09:33N 40°41' W 074°01'2158204455.0
2014-Apr-03 09:33N 48°16' W 123°18'21582188.1
2014-Apr-03 08:34N 40°42' W 073°60'2152774739.8
2014-Apr-03 08:33N 48°17' W 123°09'2152352125.7
2014-Apr-03 08:33N 40°41' W 074°01'0 0.0
2014-Apr-03 07:33N 40°41' W 074°01'1269.8
2014-Apr-03 07:33N 40°42' W 073°60'2153151990.6
2014-Apr-03 07:32N 48°18' W 123°10'21532195.9
2014-Apr-03 06:34N 40°42' W 073°60'14578.5
2014-Apr-03 06:34N 40°41' W 074°01'1 1.3
2014-Apr-03 05:34N 40°42' W 073°60'14586.1
2014-Apr-03 05:34N 40°41' W 074°01'2151967770.8
2014-Apr-03 05:33N 48°18' W 123°07'22135124.4
2014-Apr-03 05:07N 32°29' W 079°21'556981.8
2014-Apr-03 04:34N 40°41' W 074°01'21557757499.5
2014-Apr-03 04:33N 48°17' W 123°13'2155969770.8
2014-Apr-03 04:33N 40°43' W 073°60'1 1.3
2014-Apr-03 03:33N 40°41' W 074°01'21632595588.1
2014-Apr-03 03:33N 48°19' W 123°25'2164865492.8
2014-Apr-03 03:33N 40°39' W 074°02'3 2.9
2014-Apr-03 02:34N 40°41' W 074°01'21671300215.1
2014-Apr-03 02:33N 48°21' W 123°31'21681300662.6
2014-Apr-03 02:33N 40°39' W 074°02'3 2.9
2014-Apr-03 01:33N 40°41' W 074°01'2160388744.9
2014-Apr-03 01:33N 48°20' W 123°20'21597771705.5
2014-Apr-03 01:33N 40°43' W 074°01'21522165.1
2014-Apr-03 00:34N 48°23' W 123°11'21533876164.4
2014-Apr-03 00:33N 40°39' W 074°02'4258.0
2014-Apr-03 00:33N 40°43' W 074°01'21562188.9
2014-Apr-02 23:33N 48°20' W 123°16'21581109661.4
2014-Apr-02 23:33N 40°39' W 074°02'0 0.0
2014-Apr-02 22:34N 40°39' W 074°02'44624.4
2014-Apr-02 22:33N 40°42' W 074°00'21597771248.3
2014-Apr-02 22:33N 48°16' W 123°18'21592161.1
2014-Apr-02 21:34N 40°39' W 074°02'21636.7
2014-Apr-02 21:33N 40°40' W 074°02'21573882246.5
2014-Apr-02 21:33N 48°19' W 123°16'4 4.5
2014-Apr-02 20:33N 48°19' W 123°23'21627782535.2
2014-Apr-02 20:33N 40°40' W 074°01'21662165.6
2014-Apr-02 19:33N 48°20' W 123°28'1 0.9
2014-Apr-02 18:34N 48°21' W 123°29'1 0.9
2014-Apr-02 17:33N 48°20' W 123°29'1 0.6
2014-Apr-02 16:33N 48°20' W 123°29'216414114.3
2014-Apr-02 16:24N 40°44' W 074°01'21632560.3
2014-Apr-02 15:33N 48°22' W 123°28'1 0.9
2014-Apr-02 14:33N 48°21' W 123°29'216426492.8
2014-Apr-02 14:28N 40°44' W 074°01'1 1.3
2014-Apr-02 13:33N 40°43' W 074°02'2164125658.7
2014-Apr-02 13:32N 48°20' W 123°29'1515.3
2014-Apr-02 12:33N 48°19' W 123°06'3 2.8
2014-Apr-02 11:29N 48°17' W 123°09'21532241.9
2014-Apr-02 10:32N 40°39' W 074°02'2151124906.4
2014-Apr-02 10:31N 48°19' W 123°07'21518510.0
2014-Apr-02 10:16N 40°39' W 074°02'2 2.4
2014-Apr-02 09:33N 40°40' W 074°01'12175.8
2014-Apr-02 09:33N 40°41' W 074°01'2153596328.2
2014-Apr-02 09:33N 48°17' W 123°11'2156107816.6
2014-Apr-02 09:32N 40°48' W 073°52'21642218.7
2014-Apr-02 08:33N 48°17' W 123°22'21617781098.7
2014-Apr-02 08:33N 40°40' W 074°01'11087.9
2014-Apr-02 08:33N 40°41' W 074°01'1 1.2
2014-Apr-02 07:33N 40°40' W 074°01'1309.3
2014-Apr-02 07:33N 40°41' W 074°01'2163556197.0
2014-Apr-02 07:33N 48°24' W 123°25'4 4.3
2014-Apr-02 06:34N 48°21' W 123°29'21663899188.8
2014-Apr-02 06:33N 40°40' W 074°01'11083.1
2014-Apr-02 06:33N 40°41' W 074°01'21662169.4
2014-Apr-02 05:34N 48°20' W 123°29'21662599461.5
2014-Apr-02 05:33N 40°40' W 074°01'12166.1
2014-Apr-02 05:33N 40°41' W 074°01'977.6
2014-Apr-02 05:27N 40°48' W 073°52'21682452.3
2014-Apr-02 04:33N 48°21' W 123°28'21651559043.9
2014-Apr-02 04:33N 40°41' W 074°01'1721.7
2014-Apr-02 04:33N 40°40' W 074°01'1036.6
2014-Apr-02 04:17N 40°48' W 073°52'21692982.6
2014-Apr-02 03:33N 48°20' W 123°30'21671299954.0
2014-Apr-02 03:33N 40°40' W 074°01'1025.8
2014-Apr-02 03:10N 40°48' W 073°52'21673518.6
2014-Apr-02 02:34N 48°24' W 123°27'21641298678.9
2014-Apr-02 02:33N 40°40' W 074°01'28683.4
2014-Apr-02 02:33N 40°43' W 073°60'2 2.4
2014-Apr-02 01:33N 40°40' W 074°01'21661949557.7
2014-Apr-02 01:33N 48°21' W 123°29'2166210735.2
2014-Apr-02 01:33N 40°43' W 073°60'21552184.5
2014-Apr-02 00:34N 48°17' W 123°13'21561940270.6
2014-Apr-02 00:33N 40°39' W 074°02'4345.5
2014-Apr-02 00:33N 40°43' W 073°60'21522181.1
2014-Apr-01 23:34N 48°19' W 123°09'21531549831.5
2014-Apr-01 23:33N 40°39' W 074°02'4619.1
2014-Apr-01 23:33N 40°43' W 073°60'21532170.0
2014-Apr-01 22:34N 48°17' W 123°10'21541550656.3
2014-Apr-01 22:33N 40°39' W 074°02'41142.9
2014-Apr-01 22:33N 40°43' W 073°60'21542164.4
2014-Apr-01 21:34N 48°27' W 123°12'21541938741.2
2014-Apr-01 21:33N 40°39' W 074°02'3 2.9
2014-Apr-01 20:33N 40°41' W 074°01'215822392.4
2014-Apr-01 20:28N 48°42' W 123°21'1011.4
2014-Apr-01 19:33N 48°53' W 123°18'21561940185.1
2014-Apr-01 19:33N 40°41' W 074°01'1 1.3
2014-Apr-01 18:33N 40°42' W 073°60'2158215838.8
2014-Apr-01 18:33N 49°09' W 123°23'215697020.6
2014-Apr-01 18:32N 40°45' W 074°01'21472216.3
2014-Apr-01 17:33N 49°19' W 123°11'21475508.9
2014-Apr-01 17:10N 40°44' W 074°02'21432688.1
2014-Apr-01 16:22N 49°18' W 123°05'21432347.8
2014-Apr-01 15:27N 40°44' W 074°02'4 3.9
2014-Apr-01 14:27N 40°46' W 073°57'414.3
2014-Apr-01 14:10N 40°44' W 074°02'6 8.9
2014-Apr-01 13:33N 40°39' W 074°02'0 0.0
2014-Apr-01 12:33N 40°39' W 074°02'0 0.0
2014-Apr-01 11:33N 40°39' W 074°02'0 0.0
2014-Apr-01 10:33N 40°39' W 074°02'2 1.7
2014-Apr-01 09:33N 40°40' W 074°01'0 0.0
2014-Apr-01 08:33N 40°40' W 074°01'0 0.0
2014-Apr-01 07:33N 40°40' W 074°01'0 0.0
2014-Apr-01 06:33N 40°40' W 074°01'0 0.0
2014-Apr-01 05:33N 40°40' W 074°01'0 0.0
2014-Apr-01 04:33N 40°40' W 074°01'867.3
2014-Apr-01 04:27N 40°47' W 073°56'8 8.7
2014-Apr-01 03:33N 40°40' W 074°01'0 0.0
2014-Apr-01 02:33N 40°40' W 074°01'2 1.7
2014-Apr-01 01:33N 40°39' W 074°02'0 0.0
2014-Apr-01 00:34N 40°39' W 074°02'014.6
2014-Apr-01 00:33N 40°39' W 074°02'0 0.0
2014-Mar-31 23:34N 40°39' W 074°02'5139.7
2014-Mar-31 23:31N 40°44' W 074°01'5 5.4
2014-Mar-31 22:33N 40°39' W 074°02'1 1.4
2014-Mar-31 21:33N 40°40' W 074°01'3 1.3
2014-Mar-31 19:26N 40°43' W 074°01'2 2.8
2014-Mar-31 18:33N 40°40' W 074°01'0 3.8
2014-Mar-31 18:28N 40°40' W 074°01'2 4.0
2014-Mar-31 18:05N 40°39' W 074°02'4 6.7
2014-Mar-31 17:34N 40°42' W 074°01'2841.9
2014-Mar-31 17:33N 40°40' W 074°01'21535.6
2014-Mar-31 17:33N 40°39' W 074°02'0 0.0
2014-Mar-31 16:33N 40°39' W 074°02'21233.7
2014-Mar-31 16:33N 40°40' W 074°01'12186.6
2014-Mar-31 16:33N 40°41' W 074°01'2134174631.5
2014-Mar-31 16:33N 32°40' W 117°14'21342161.4
2014-Mar-31 15:33N 40°41' W 074°01'32618.1
2014-Mar-31 15:33N 40°39' W 074°02'21027.1
2014-Mar-31 15:33N 40°40' W 074°01'2 2.4
2014-Mar-31 14:33N 40°43' W 073°60'28723.4
2014-Mar-31 14:33N 40°40' W 074°01'2 2.4
2014-Mar-31 13:33N 40°43' W 073°60'0 0.0
2014-Mar-31 12:33N 40°43' W 073°60'0 0.0
2014-Mar-31 11:33N 40°42' W 073°60'4 0.3
2014-Mar-30 21:32N 40°39' W 074°02'4 3.5
2014-Mar-30 20:21N 40°43' W 074°01'4 5.2
2014-Mar-30 19:34N 40°39' W 074°02'0 0.0
2014-Mar-30 18:34N 40°39' W 074°02'0 0.0
2014-Mar-30 17:34N 40°39' W 074°02'240569.5
2014-Mar-30 17:08N 36°56' W 075°58'240416.1
2014-Mar-30 16:34N 40°39' W 074°02'24132104.9
2014-Mar-30 16:33N 36°58' W 076°05'241242.5
2014-Mar-30 15:33N 40°39' W 074°02'24640276.5
2014-Mar-30 15:33N 36°57' W 076°20'246247.6
2014-Mar-30 14:33N 40°39' W 074°02'0 0.0
2014-Mar-30 13:33N 40°39' W 074°02'313.5
2014-Mar-30 13:20N 40°42' W 074°01'2 2.4
2014-Mar-30 12:32N 40°44' W 074°02'5 4.9
2014-Mar-30 11:32N 40°39' W 074°02'0 0.0
2014-Mar-30 10:23N 40°39' W 074°02'2 1.9
2014-Mar-30 09:33N 40°40' W 074°00'0 0.0
2014-Mar-30 08:33N 40°40' W 074°00'0 0.0
2014-Mar-30 07:33N 40°40' W 074°00'0 0.0
2014-Mar-30 06:33N 40°40' W 074°00'9781186297.2
2014-Mar-30 06:30N 33°38' E 130°19'978110322.5
2014-Mar-30 05:33N 40°40' W 074°00'9779227113.6
2014-Mar-30 05:31N 33°40' E 130°19'977910218.5
2014-Mar-30 04:33N 40°40' W 074°00'0 0.0
2014-Mar-30 03:34N 40°40' W 074°00'0 0.0
2014-Mar-30 02:33N 40°40' W 074°00'8128.7
2014-Mar-30 02:30N 40°47' W 073°56'8 8.3
2014-Mar-30 01:34N 40°40' W 074°00'3 0.6
2014-Mar-29 20:25N 40°43' W 074°01'2 2.0
2014-Mar-29 19:34N 40°41' W 074°01'98129696.6
2014-Mar-29 18:33N 22°20' E 116°36'9815173203.5
2014-Mar-29 18:29N 40°39' W 074°02'0 0.1
2014-Mar-29 18:13N 40°39' W 074°02'0 0.0
2014-Mar-29 17:33N 40°39' W 074°02'21054.0
2014-Mar-29 17:33N 40°40' W 074°01'0 0.0
2014-Mar-29 16:33N 40°40' W 074°01'2451.7
2014-Mar-29 16:33N 40°39' W 074°02'2 1.8
2014-Mar-29 15:33N 40°40' W 074°01'23174.8
2014-Mar-29 15:33N 40°39' W 074°02'2 1.7
2014-Mar-29 14:33N 40°40' W 074°01'1 1.4
2014-Mar-29 13:33N 40°42' W 074°01'3 8.6
2014-Mar-29 13:12N 40°39' W 074°02'0 0.0
2014-Mar-29 12:24N 40°39' W 074°02'0 0.5
2014-Mar-29 12:20N 40°39' W 074°02'0 0.0
2014-Mar-29 11:33N 40°39' W 074°02'1 0.9
2014-Mar-29 10:33N 40°40' W 074°02'1221.5
2014-Mar-29 10:33N 40°39' W 074°02'2 1.6
2014-Mar-29 09:33N 40°40' W 074°00'1816.3
2014-Mar-29 09:33N 40°41' W 074°01'1 1.1
2014-Mar-29 08:33N 40°40' W 074°00'0257.4
2014-Mar-29 08:33N 40°40' W 074°01'0 0.4
2014-Mar-29 07:33N 40°40' W 074°00'0258.9
2014-Mar-29 07:33N 40°40' W 074°01'0 0.4
2014-Mar-29 06:33N 40°40' W 074°00'0321.8
2014-Mar-29 06:33N 40°40' W 074°01'0 0.4
2014-Mar-29 05:33N 40°40' W 074°00'0323.6
2014-Mar-29 05:33N 40°40' W 074°01'0 0.4
2014-Mar-29 04:33N 40°40' W 074°00'0258.9
2014-Mar-29 04:33N 40°40' W 074°01'818.6
2014-Mar-29 04:08N 40°47' W 073°56'813.4
2014-Mar-29 03:34N 40°40' W 074°00'2957.3
2014-Mar-29 03:33N 40°41' W 074°01'2 1.6
2014-Mar-29 02:34N 40°40' W 074°00'21148.8
2014-Mar-29 02:33N 40°41' W 074°01'3 2.9
2014-Mar-29 01:33N 40°39' W 074°02'33481.3
2014-Mar-29 01:33N 40°41' W 074°01'3 6.1
2014-Mar-29 01:05N 40°39' W 074°02'0 0.1
2014-Mar-29 00:33N 40°39' W 074°02'44952.6
2014-Mar-29 00:33N 40°43' W 073°60'1159.7
2014-Mar-29 00:33N 40°41' W 074°01'3 2.9
2014-Mar-28 23:33N 40°39' W 074°02'32089.6
2014-Mar-28 23:33N 40°41' W 074°01'1513.7
2014-Mar-28 23:33N 40°43' W 073°60'4 4.1
2014-Mar-28 22:33N 40°39' W 074°02'32612.1
2014-Mar-28 22:33N 40°41' W 074°01'12311.5
2014-Mar-28 22:33N 40°43' W 073°60'4 4.1
2014-Mar-28 21:33N 40°39' W 074°02'42971.5
2014-Mar-28 21:33N 40°43' W 073°60'1513.7
2014-Mar-28 21:33N 40°41' W 074°01'0 0.2
2014-Mar-28 20:34N 40°41' W 074°01'32450.5
2014-Mar-28 20:33N 40°39' W 074°02'42971.5
2014-Mar-28 20:33N 40°43' W 073°60'477.3
2014-Mar-28 20:30N 40°39' W 074°02'2 2.1
2014-Mar-28 19:32N 40°37' W 074°03'2 1.9
2014-Mar-28 18:32N 40°39' W 074°02'318.7
2014-Mar-28 18:23N 40°36' W 074°01'731.3
2014-Mar-28 18:10N 40°43' W 074°01'4 6.0
2014-Mar-28 17:29N 40°39' W 074°02'4989.0
2014-Mar-28 17:29N 40°43' W 074°01'1 1.1
2014-Mar-28 16:33N 40°42' W 073°60'  

Dump ship's entire track history